Accueil
METAR-TAF:

METAR-TAF

Aéroports :

Kimmirut, Nunavut, Canada

latitude: 62-51N, longitude: 069-53W, altitude: 53 m

Observation

Le bulletin a été fait il y a 2 heures et 11 minutes, à 12:00 UTC
Vent 3 kt de nord, variant entre nord/nord-ouest et nord-est
Température -1°C
Humidité 74%
Pression 1018 hPa
Visibilité: 24.1 km
Nuages épars à une hauteur de 4400 ft
Nuages fragmentés à une hauteur de 12000 ft
faibles averses de neige

METAR: CYLC 011200Z 01003KT 340V050 15SM -SHSN SCT044 BKN120 M01/M05 A3005 RMK SC3AC3 SLP181

Heure: 10:11 (14:11 UTC)


TAF: absent

Observations et prévisions météorologiques de plus de 4000 aéroports (messages METAR et TAF).

Les stations disponibles sont représentées par des disques jaunes et rouges sur la carte.

Passer la souris dessus pour voir le nom de la station.

Cliquer dessus pour voir les observations et prévisions météorologiques.

Pour changer de carte: cliquez sur les boutons verts avec une croix noire pour zoomer, sur le bouton vert avec un tiret pour effectuer un zoom arrière, ou sur les flèches vertes pour les cartes adjacentes.


METAR-TAF: